Muldoon, Idaho
Current Conditions -  °F | °C
As of 4:47 PM on Sunday 23 Nov 2014 (Local Time) from KSUN Reporting Station
Scattered Clouds Scattered Clouds  
Wind Chill: 34°   Ceiling: Unl
Heat Index: 34°   Visibility: 10mi
Dew Point: 19°   Wind: 0mph
Humidity: 56%   Direction: NA
Pressure: 30.13"   Gusts: NA
Location:  43.1959°N, 113.555°W
Report Text: KSUN 232347Z 00000KT 10SM SCT080 01/M07 A3013
Loading
Personal Weather Stations






























Interactive Weather Map New forecast layout! Learn more

10-Day Weather Forecast

Advertisements
Track Severe Weather on mobile